sensor_id;sensor_type;location;lat;lon;timestamp;P1;durP1;ratioP1;P2;durP2;ratioP2
2338;SDS011;1180;51.438;6.978;2023-07-28T00:01:26;3.60;;;3.30;;
2338;SDS011;1180;51.438;6.978;2023-07-28T00:03:56;3.27;;;3.07;;
2338;SDS011;1180;51.438;6.978;2023-07-28T00:06:23;3.97;;;3.57;;
2338;SDS011;1180;51.438;6.978;2023-07-28T00:08:49;3.90;;;3.50;;
2338;SDS011;1180;51.438;6.978;2023-07-28T00:11:15;3.73;;;3.43;;
2338;SDS011;1180;51.438;6.978;2023-07-28T00:13:41;4.27;;;3.87;;
2338;SDS011;1180;51.438;6.978;2023-07-28T00:16:08;4.50;;;3.80;;
2338;SDS011;1180;51.438;6.978;2023-07-28T00:18:35;5.00;;;4.60;;
2338;SDS011;1180;51.438;6.978;2023-07-28T00:21:01;4.27;;;3.97;;
2338;SDS011;1180;51.438;6.978;2023-07-28T00:23:27;4.50;;;4.07;;
2338;SDS011;1180;51.438;6.978;2023-07-28T00:25:55;5.10;;;4.70;;
2338;SDS011;1180;51.438;6.978;2023-07-28T00:28:20;5.00;;;4.60;;
2338;SDS011;1180;51.438;6.978;2023-07-28T00:30:49;5.00;;;4.60;;
2338;SDS011;1180;51.438;6.978;2023-07-28T00:33:16;4.07;;;3.63;;
2338;SDS011;1180;51.438;6.978;2023-07-28T00:35:42;4.17;;;3.83;;
2338;SDS011;1180;51.438;6.978;2023-07-28T00:38:11;3.93;;;3.53;;
2338;SDS011;1180;51.438;6.978;2023-07-28T00:40:37;4.30;;;4.00;;
2338;SDS011;1180;51.438;6.978;2023-07-28T00:43:03;3.27;;;3.07;;
2338;SDS011;1180;51.438;6.978;2023-07-28T00:45:30;2.57;;;2.37;;
2338;SDS011;1180;51.438;6.978;2023-07-28T00:47:58;3.27;;;2.67;;
2338;SDS011;1180;51.438;6.978;2023-07-28T00:50:24;2.53;;;2.33;;
2338;SDS011;1180;51.438;6.978;2023-07-28T00:52:51;3.27;;;3.07;;
2338;SDS011;1180;51.438;6.978;2023-07-28T00:55:17;3.70;;;3.30;;
2338;SDS011;1180;51.438;6.978;2023-07-28T00:57:44;3.13;;;2.77;;
2338;SDS011;1180;51.438;6.978;2023-07-28T01:00:10;4.60;;;3.00;;
2338;SDS011;1180;51.438;6.978;2023-07-28T01:02:36;2.90;;;2.70;;
2338;SDS011;1180;51.438;6.978;2023-07-28T01:05:03;2.80;;;2.60;;
2338;SDS011;1180;51.438;6.978;2023-07-28T01:07:32;2.87;;;2.53;;
2338;SDS011;1180;51.438;6.978;2023-07-28T01:10:13;2.80;;;2.60;;
2338;SDS011;1180;51.438;6.978;2023-07-28T01:12:43;3.90;;;3.40;;
2338;SDS011;1180;51.438;6.978;2023-07-28T01:15:09;3.20;;;2.97;;
2338;SDS011;1180;51.438;6.978;2023-07-28T01:17:34;2.50;;;2.30;;
2338;SDS011;1180;51.438;6.978;2023-07-28T01:20:01;2.23;;;2.10;;
2338;SDS011;1180;51.438;6.978;2023-07-28T01:25:09;3.00;;;2.70;;
2338;SDS011;1180;51.438;6.978;2023-07-28T01:27:38;2.43;;;2.23;;
2338;SDS011;1180;51.438;6.978;2023-07-28T01:30:08;2.40;;;2.20;;
2338;SDS011;1180;51.438;6.978;2023-07-28T01:32:35;1.90;;;1.70;;
2338;SDS011;1180;51.438;6.978;2023-07-28T01:35:02;3.13;;;1.90;;
2338;SDS011;1180;51.438;6.978;2023-07-28T01:37:28;2.00;;;1.90;;
2338;SDS011;1180;51.438;6.978;2023-07-28T01:39:55;1.87;;;1.77;;
2338;SDS011;1180;51.438;6.978;2023-07-28T01:42:22;2.37;;;2.23;;
2338;SDS011;1180;51.438;6.978;2023-07-28T01:44:48;1.83;;;1.73;;
2338;SDS011;1180;51.438;6.978;2023-07-28T01:47:14;2.83;;;2.40;;
2338;SDS011;1180;51.438;6.978;2023-07-28T01:49:39;3.17;;;2.07;;
2338;SDS011;1180;51.438;6.978;2023-07-28T01:52:05;2.37;;;2.27;;
2338;SDS011;1180;51.438;6.978;2023-07-28T01:54:31;2.23;;;2.03;;
2338;SDS011;1180;51.438;6.978;2023-07-28T01:56:57;2.80;;;2.60;;
2338;SDS011;1180;51.438;6.978;2023-07-28T01:59:22;2.60;;;2.40;;
2338;SDS011;1180;51.438;6.978;2023-07-28T02:01:48;1.97;;;1.87;;
2338;SDS011;1180;51.438;6.978;2023-07-28T02:04:14;1.80;;;1.70;;
2338;SDS011;1180;51.438;6.978;2023-07-28T02:06:41;2.10;;;1.90;;
2338;SDS011;1180;51.438;6.978;2023-07-28T02:09:07;2.90;;;2.03;;
2338;SDS011;1180;51.438;6.978;2023-07-28T02:11:32;2.27;;;2.07;;
2338;SDS011;1180;51.438;6.978;2023-07-28T02:13:58;1.73;;;1.63;;
2338;SDS011;1180;51.438;6.978;2023-07-28T02:16:24;2.33;;;2.13;;
2338;SDS011;1180;51.438;6.978;2023-07-28T02:18:52;1.87;;;1.70;;
2338;SDS011;1180;51.438;6.978;2023-07-28T02:21:19;2.90;;;1.90;;
2338;SDS011;1180;51.438;6.978;2023-07-28T02:23:45;2.03;;;1.93;;
2338;SDS011;1180;51.438;6.978;2023-07-28T02:26:10;1.70;;;1.60;;
2338;SDS011;1180;51.438;6.978;2023-07-28T02:28:36;1.30;;;1.20;;
2338;SDS011;1180;51.438;6.978;2023-07-28T02:31:02;1.80;;;1.70;;
2338;SDS011;1180;51.438;6.978;2023-07-28T02:33:28;1.87;;;1.77;;
2338;SDS011;1180;51.438;6.978;2023-07-28T02:36:00;1.70;;;1.60;;
2338;SDS011;1180;51.438;6.978;2023-07-28T02:38:26;2.20;;;2.00;;
2338;SDS011;1180;51.438;6.978;2023-07-28T02:40:52;2.47;;;2.00;;
2338;SDS011;1180;51.438;6.978;2023-07-28T02:43:18;2.30;;;2.10;;
2338;SDS011;1180;51.438;6.978;2023-07-28T02:45:47;1.93;;;1.83;;
2338;SDS011;1180;51.438;6.978;2023-07-28T02:48:13;2.47;;;2.27;;
2338;SDS011;1180;51.438;6.978;2023-07-28T02:50:39;2.40;;;2.20;;
2338;SDS011;1180;51.438;6.978;2023-07-28T02:53:10;2.70;;;2.50;;
2338;SDS011;1180;51.438;6.978;2023-07-28T02:55:40;3.00;;;2.80;;
2338;SDS011;1180;51.438;6.978;2023-07-28T02:58:09;2.73;;;2.53;;
2338;SDS011;1180;51.438;6.978;2023-07-28T03:00:39;2.97;;;2.77;;
2338;SDS011;1180;51.438;6.978;2023-07-28T03:03:05;3.30;;;2.67;;
2338;SDS011;1180;51.438;6.978;2023-07-28T03:05:32;3.00;;;2.40;;
2338;SDS011;1180;51.438;6.978;2023-07-28T03:07:58;3.20;;;3.00;;
2338;SDS011;1180;51.438;6.978;2023-07-28T03:10:24;2.60;;;2.40;;
2338;SDS011;1180;51.438;6.978;2023-07-28T03:12:50;2.97;;;2.77;;
2338;SDS011;1180;51.438;6.978;2023-07-28T03:15:16;3.20;;;3.00;;
2338;SDS011;1180;51.438;6.978;2023-07-28T03:17:42;3.00;;;2.80;;
2338;SDS011;1180;51.438;6.978;2023-07-28T03:20:07;2.63;;;2.43;;
2338;SDS011;1180;51.438;6.978;2023-07-28T03:22:35;3.80;;;3.00;;
2338;SDS011;1180;51.438;6.978;2023-07-28T03:25:00;2.70;;;2.50;;
2338;SDS011;1180;51.438;6.978;2023-07-28T03:27:26;3.13;;;2.90;;
2338;SDS011;1180;51.438;6.978;2023-07-28T03:29:52;3.40;;;3.10;;
2338;SDS011;1180;51.438;6.978;2023-07-28T03:32:17;3.30;;;3.10;;
2338;SDS011;1180;51.438;6.978;2023-07-28T03:34:43;2.97;;;2.77;;
2338;SDS011;1180;51.438;6.978;2023-07-28T03:37:09;3.10;;;2.77;;
2338;SDS011;1180;51.438;6.978;2023-07-28T03:39:34;3.13;;;2.93;;
2338;SDS011;1180;51.438;6.978;2023-07-28T03:42:00;2.47;;;2.27;;
2338;SDS011;1180;51.438;6.978;2023-07-28T03:44:26;2.80;;;2.60;;
2338;SDS011;1180;51.438;6.978;2023-07-28T03:46:52;3.23;;;2.90;;
2338;SDS011;1180;51.438;6.978;2023-07-28T03:49:18;2.90;;;2.70;;
2338;SDS011;1180;51.438;6.978;2023-07-28T03:51:44;6.00;;;3.07;;
2338;SDS011;1180;51.438;6.978;2023-07-28T03:54:10;3.60;;;3.30;;
2338;SDS011;1180;51.438;6.978;2023-07-28T03:56:36;2.90;;;2.70;;
2338;SDS011;1180;51.438;6.978;2023-07-28T03:59:01;2.87;;;2.53;;
2338;SDS011;1180;51.438;6.978;2023-07-28T04:01:27;4.00;;;3.60;;
2338;SDS011;1180;51.438;6.978;2023-07-28T04:03:53;3.30;;;3.10;;
2338;SDS011;1180;51.438;6.978;2023-07-28T04:06:19;2.97;;;2.77;;
2338;SDS011;1180;51.438;6.978;2023-07-28T04:09:04;3.37;;;3.13;;
2338;SDS011;1180;51.438;6.978;2023-07-28T04:11:30;3.63;;;2.63;;
2338;SDS011;1180;51.438;6.978;2023-07-28T04:13:56;3.07;;;2.87;;
2338;SDS011;1180;51.438;6.978;2023-07-28T04:16:21;2.97;;;2.77;;
2338;SDS011;1180;51.438;6.978;2023-07-28T04:18:47;2.93;;;2.40;;
2338;SDS011;1180;51.438;6.978;2023-07-28T04:21:13;4.03;;;2.23;;
2338;SDS011;1180;51.438;6.978;2023-07-28T04:23:38;2.70;;;1.63;;
2338;SDS011;1180;51.438;6.978;2023-07-28T04:26:04;1.60;;;1.50;;
2338;SDS011;1180;51.438;6.978;2023-07-28T04:28:30;1.73;;;1.63;;
2338;SDS011;1180;51.438;6.978;2023-07-28T04:30:56;2.20;;;2.00;;
2338;SDS011;1180;51.438;6.978;2023-07-28T04:33:21;2.60;;;2.40;;
2338;SDS011;1180;51.438;6.978;2023-07-28T04:35:47;1.60;;;1.50;;
2338;SDS011;1180;51.438;6.978;2023-07-28T04:38:13;2.40;;;1.73;;
2338;SDS011;1180;51.438;6.978;2023-07-28T04:40:39;1.83;;;1.73;;
2338;SDS011;1180;51.438;6.978;2023-07-28T04:43:04;2.20;;;2.03;;
2338;SDS011;1180;51.438;6.978;2023-07-28T04:45:30;3.53;;;1.90;;
2338;SDS011;1180;51.438;6.978;2023-07-28T04:47:56;2.00;;;1.90;;
2338;SDS011;1180;51.438;6.978;2023-07-28T04:50:22;1.20;;;1.10;;
2338;SDS011;1180;51.438;6.978;2023-07-28T04:52:48;1.37;;;1.27;;
2338;SDS011;1180;51.438;6.978;2023-07-28T04:55:13;1.33;;;1.23;;
2338;SDS011;1180;51.438;6.978;2023-07-28T04:57:39;1.93;;;1.83;;
2338;SDS011;1180;51.438;6.978;2023-07-28T05:00:05;1.70;;;1.60;;
2338;SDS011;1180;51.438;6.978;2023-07-28T05:02:31;3.83;;;2.03;;
2338;SDS011;1180;51.438;6.978;2023-07-28T05:04:57;1.53;;;1.43;;
2338;SDS011;1180;51.438;6.978;2023-07-28T05:07:23;1.47;;;1.37;;
2338;SDS011;1180;51.438;6.978;2023-07-28T05:09:49;1.83;;;1.50;;
2338;SDS011;1180;51.438;6.978;2023-07-28T05:12:14;1.57;;;1.47;;
2338;SDS011;1180;51.438;6.978;2023-07-28T05:14:41;1.80;;;1.70;;
2338;SDS011;1180;51.438;6.978;2023-07-28T05:17:07;3.53;;;1.43;;
2338;SDS011;1180;51.438;6.978;2023-07-28T05:19:33;3.20;;;2.13;;
2338;SDS011;1180;51.438;6.978;2023-07-28T05:21:58;2.60;;;2.30;;
2338;SDS011;1180;51.438;6.978;2023-07-28T05:24:24;2.63;;;2.43;;
2338;SDS011;1180;51.438;6.978;2023-07-28T05:26:50;3.20;;;2.87;;
2338;SDS011;1180;51.438;6.978;2023-07-28T05:29:16;3.53;;;3.23;;
2338;SDS011;1180;51.438;6.978;2023-07-28T05:31:42;3.40;;;3.10;;
2338;SDS011;1180;51.438;6.978;2023-07-28T05:34:08;3.30;;;3.00;;
2338;SDS011;1180;51.438;6.978;2023-07-28T05:36:33;3.63;;;3.33;;
2338;SDS011;1180;51.438;6.978;2023-07-28T05:38:59;3.67;;;3.37;;
2338;SDS011;1180;51.438;6.978;2023-07-28T05:41:25;5.40;;;3.77;;
2338;SDS011;1180;51.438;6.978;2023-07-28T05:43:51;4.00;;;3.60;;
2338;SDS011;1180;51.438;6.978;2023-07-28T05:46:17;3.67;;;3.37;;
2338;SDS011;1180;51.438;6.978;2023-07-28T05:48:42;5.27;;;4.70;;
2338;SDS011;1180;51.438;6.978;2023-07-28T05:51:08;3.90;;;3.60;;
2338;SDS011;1180;51.438;6.978;2023-07-28T05:53:33;3.90;;;3.60;;
2338;SDS011;1180;51.438;6.978;2023-07-28T05:55:59;4.00;;;3.70;;
2338;SDS011;1180;51.438;6.978;2023-07-28T05:58:25;4.37;;;4.07;;
2338;SDS011;1180;51.438;6.978;2023-07-28T06:00:51;6.23;;;5.63;;
2338;SDS011;1180;51.438;6.978;2023-07-28T06:03:16;4.50;;;4.10;;
2338;SDS011;1180;51.438;6.978;2023-07-28T06:05:42;4.10;;;3.80;;
2338;SDS011;1180;51.438;6.978;2023-07-28T06:08:08;3.40;;;3.20;;
2338;SDS011;1180;51.438;6.978;2023-07-28T06:10:34;4.63;;;4.17;;
2338;SDS011;1180;51.438;6.978;2023-07-28T06:13:00;4.20;;;3.90;;
2338;SDS011;1180;51.438;6.978;2023-07-28T06:15:26;4.83;;;4.33;;
2338;SDS011;1180;51.438;6.978;2023-07-28T06:17:52;4.10;;;3.80;;
2338;SDS011;1180;51.438;6.978;2023-07-28T06:20:19;4.70;;;4.30;;
2338;SDS011;1180;51.438;6.978;2023-07-28T06:22:44;5.80;;;5.30;;
2338;SDS011;1180;51.438;6.978;2023-07-28T06:25:10;6.00;;;5.50;;
2338;SDS011;1180;51.438;6.978;2023-07-28T06:27:36;5.77;;;5.27;;
2338;SDS011;1180;51.438;6.978;2023-07-28T06:30:03;4.87;;;4.47;;
2338;SDS011;1180;51.438;6.978;2023-07-28T06:32:30;5.33;;;4.90;;
2338;SDS011;1180;51.438;6.978;2023-07-28T06:34:56;4.27;;;3.97;;
2338;SDS011;1180;51.438;6.978;2023-07-28T06:37:22;4.90;;;4.50;;
2338;SDS011;1180;51.438;6.978;2023-07-28T06:39:48;5.00;;;4.60;;
2338;SDS011;1180;51.438;6.978;2023-07-28T06:42:14;4.70;;;4.30;;
2338;SDS011;1180;51.438;6.978;2023-07-28T06:44:41;4.93;;;4.53;;
2338;SDS011;1180;51.438;6.978;2023-07-28T06:47:07;5.30;;;4.90;;
2338;SDS011;1180;51.438;6.978;2023-07-28T06:49:33;6.30;;;5.70;;
2338;SDS011;1180;51.438;6.978;2023-07-28T06:51:59;6.17;;;5.57;;
2338;SDS011;1180;51.438;6.978;2023-07-28T06:54:25;6.83;;;5.33;;
2338;SDS011;1180;51.438;6.978;2023-07-28T06:56:50;6.90;;;6.20;;
2338;SDS011;1180;51.438;6.978;2023-07-28T06:59:16;6.17;;;5.67;;
2338;SDS011;1180;51.438;6.978;2023-07-28T07:01:42;6.20;;;5.70;;
2338;SDS011;1180;51.438;6.978;2023-07-28T07:04:07;6.50;;;5.90;;
2338;SDS011;1180;51.438;6.978;2023-07-28T07:06:33;6.73;;;6.03;;
2338;SDS011;1180;51.438;6.978;2023-07-28T07:08:59;6.80;;;6.20;;
2338;SDS011;1180;51.438;6.978;2023-07-28T07:11:25;7.30;;;6.70;;
2338;SDS011;1180;51.438;6.978;2023-07-28T07:13:50;6.87;;;6.33;;
2338;SDS011;1180;51.438;6.978;2023-07-28T07:16:16;8.03;;;7.33;;
2338;SDS011;1180;51.438;6.978;2023-07-28T07:18:43;6.40;;;5.87;;
2338;SDS011;1180;51.438;6.978;2023-07-28T07:21:09;8.30;;;7.50;;
2338;SDS011;1180;51.438;6.978;2023-07-28T07:23:35;8.03;;;7.33;;
2338;SDS011;1180;51.438;6.978;2023-07-28T07:26:02;8.30;;;7.50;;
2338;SDS011;1180;51.438;6.978;2023-07-28T07:28:28;8.40;;;7.70;;
2338;SDS011;1180;51.438;6.978;2023-07-28T07:30:54;7.90;;;7.23;;
2338;SDS011;1180;51.438;6.978;2023-07-28T07:33:21;8.73;;;7.97;;
2338;SDS011;1180;51.438;6.978;2023-07-28T07:35:46;8.90;;;8.20;;
2338;SDS011;1180;51.438;6.978;2023-07-28T07:38:12;9.10;;;8.30;;
2338;SDS011;1180;51.438;6.978;2023-07-28T07:40:38;10.00;;;8.60;;
2338;SDS011;1180;51.438;6.978;2023-07-28T07:43:04;10.67;;;9.77;;
2338;SDS011;1180;51.438;6.978;2023-07-28T07:45:30;8.23;;;7.53;;
2338;SDS011;1180;51.438;6.978;2023-07-28T07:47:56;8.43;;;7.73;;
2338;SDS011;1180;51.438;6.978;2023-07-28T07:50:21;9.63;;;8.93;;
2338;SDS011;1180;51.438;6.978;2023-07-28T07:52:49;9.00;;;8.20;;
2338;SDS011;1180;51.438;6.978;2023-07-28T07:55:14;9.63;;;8.73;;
2338;SDS011;1180;51.438;6.978;2023-07-28T07:57:40;10.80;;;9.80;;
2338;SDS011;1180;51.438;6.978;2023-07-28T08:00:07;11.30;;;10.40;;
2338;SDS011;1180;51.438;6.978;2023-07-28T08:02:34;10.10;;;8.30;;
2338;SDS011;1180;51.438;6.978;2023-07-28T08:05:00;10.17;;;9.17;;
2338;SDS011;1180;51.438;6.978;2023-07-28T08:07:26;8.00;;;7.30;;
2338;SDS011;1180;51.438;6.978;2023-07-28T08:09:51;7.27;;;6.57;;
2338;SDS011;1180;51.438;6.978;2023-07-28T08:12:17;6.53;;;5.53;;
2338;SDS011;1180;51.438;6.978;2023-07-28T08:14:43;7.00;;;6.30;;
2338;SDS011;1180;51.438;6.978;2023-07-28T08:17:11;5.57;;;5.10;;
2338;SDS011;1180;51.438;6.978;2023-07-28T08:19:37;8.10;;;7.30;;
2338;SDS011;1180;51.438;6.978;2023-07-28T08:22:03;10.10;;;9.20;;
2338;SDS011;1180;51.438;6.978;2023-07-28T08:24:29;9.40;;;8.50;;
2338;SDS011;1180;51.438;6.978;2023-07-28T08:26:55;11.10;;;8.90;;
2338;SDS011;1180;51.438;6.978;2023-07-28T08:29:21;9.23;;;8.10;;
2338;SDS011;1180;51.438;6.978;2023-07-28T08:31:46;8.10;;;7.40;;
2338;SDS011;1180;51.438;6.978;2023-07-28T08:34:12;6.40;;;5.90;;
2338;SDS011;1180;51.438;6.978;2023-07-28T08:36:38;7.73;;;6.57;;
2338;SDS011;1180;51.438;6.978;2023-07-28T08:39:05;7.63;;;6.87;;
2338;SDS011;1180;51.438;6.978;2023-07-28T08:41:30;8.00;;;7.30;;
2338;SDS011;1180;51.438;6.978;2023-07-28T08:43:56;7.50;;;6.90;;
2338;SDS011;1180;51.438;6.978;2023-07-28T08:46:23;5.87;;;5.37;;
2338;SDS011;1180;51.438;6.978;2023-07-28T08:48:48;4.07;;;3.77;;
2338;SDS011;1180;51.438;6.978;2023-07-28T08:51:14;2.80;;;2.40;;
2338;SDS011;1180;51.438;6.978;2023-07-28T08:53:40;2.47;;;2.27;;
2338;SDS011;1180;51.438;6.978;2023-07-28T08:56:06;1.90;;;1.70;;
2338;SDS011;1180;51.438;6.978;2023-07-28T08:58:32;1.97;;;1.67;;
2338;SDS011;1180;51.438;6.978;2023-07-28T09:00:59;1.20;;;1.10;;
2338;SDS011;1180;51.438;6.978;2023-07-28T09:03:28;1.10;;;1.00;;
2338;SDS011;1180;51.438;6.978;2023-07-28T09:06:01;1.30;;;1.00;;
2338;SDS011;1180;51.438;6.978;2023-07-28T09:08:27;1.27;;;1.17;;
2338;SDS011;1180;51.438;6.978;2023-07-28T09:10:55;1.30;;;1.20;;
2338;SDS011;1180;51.438;6.978;2023-07-28T09:13:21;1.67;;;1.57;;
2338;SDS011;1180;51.438;6.978;2023-07-28T09:15:47;1.83;;;1.53;;
2338;SDS011;1180;51.438;6.978;2023-07-28T09:18:14;1.30;;;1.20;;
2338;SDS011;1180;51.438;6.978;2023-07-28T09:20:42;1.47;;;1.37;;
2338;SDS011;1180;51.438;6.978;2023-07-28T09:23:09;1.70;;;1.30;;
2338;SDS011;1180;51.438;6.978;2023-07-28T09:25:36;1.97;;;1.37;;
2338;SDS011;1180;51.438;6.978;2023-07-28T09:28:03;1.50;;;1.40;;
2338;SDS011;1180;51.438;6.978;2023-07-28T09:30:46;1.40;;;1.17;;
2338;SDS011;1180;51.438;6.978;2023-07-28T09:33:14;1.43;;;1.30;;
2338;SDS011;1180;51.438;6.978;2023-07-28T09:35:54;1.50;;;1.40;;
2338;SDS011;1180;51.438;6.978;2023-07-28T09:38:20;2.07;;;1.87;;
2338;SDS011;1180;51.438;6.978;2023-07-28T09:40:47;3.10;;;2.80;;
2338;SDS011;1180;51.438;6.978;2023-07-28T09:43:14;5.83;;;3.60;;
2338;SDS011;1180;51.438;6.978;2023-07-28T09:45:40;6.17;;;5.70;;
2338;SDS011;1180;51.438;6.978;2023-07-28T09:48:09;5.47;;;5.07;;
2338;SDS011;1180;51.438;6.978;2023-07-28T09:50:37;5.47;;;4.97;;
2338;SDS011;1180;51.438;6.978;2023-07-28T09:53:05;6.50;;;5.90;;
2338;SDS011;1180;51.438;6.978;2023-07-28T09:55:37;5.10;;;4.70;;
2338;SDS011;1180;51.438;6.978;2023-07-28T09:58:06;7.30;;;5.00;;
2338;SDS011;1180;51.438;6.978;2023-07-28T10:00:35;4.63;;;4.23;;
2338;SDS011;1180;51.438;6.978;2023-07-28T10:03:02;5.83;;;4.57;;
2338;SDS011;1180;51.438;6.978;2023-07-28T10:05:30;5.27;;;4.77;;
2338;SDS011;1180;51.438;6.978;2023-07-28T10:07:57;4.43;;;4.03;;
2338;SDS011;1180;51.438;6.978;2023-07-28T10:10:24;5.77;;;5.27;;
2338;SDS011;1180;51.438;6.978;2023-07-28T10:12:52;5.50;;;5.10;;
2338;SDS011;1180;51.438;6.978;2023-07-28T10:15:20;5.60;;;5.20;;
2338;SDS011;1180;51.438;6.978;2023-07-28T10:17:54;6.07;;;5.57;;
2338;SDS011;1180;51.438;6.978;2023-07-28T10:20:33;5.70;;;5.17;;
2338;SDS011;1180;51.438;6.978;2023-07-28T10:23:07;9.73;;;6.00;;
2338;SDS011;1180;51.438;6.978;2023-07-28T10:25:37;5.27;;;4.83;;
2338;SDS011;1180;51.438;6.978;2023-07-28T10:28:04;4.90;;;4.50;;
2338;SDS011;1180;51.438;6.978;2023-07-28T10:30:34;3.70;;;3.40;;
2338;SDS011;1180;51.438;6.978;2023-07-28T10:33:02;3.40;;;3.10;;
2338;SDS011;1180;51.438;6.978;2023-07-28T10:35:28;4.87;;;3.47;;
2338;SDS011;1180;51.438;6.978;2023-07-28T10:37:56;4.23;;;3.83;;
2338;SDS011;1180;51.438;6.978;2023-07-28T10:42:53;3.03;;;2.83;;
2338;SDS011;1180;51.438;6.978;2023-07-28T10:45:21;3.07;;;2.87;;
2338;SDS011;1180;51.438;6.978;2023-07-28T10:47:48;4.00;;;3.20;;
2338;SDS011;1180;51.438;6.978;2023-07-28T10:50:14;3.93;;;3.57;;
2338;SDS011;1180;51.438;6.978;2023-07-28T10:52:41;5.00;;;3.20;;
2338;SDS011;1180;51.438;6.978;2023-07-28T10:55:20;3.20;;;3.00;;
2338;SDS011;1180;51.438;6.978;2023-07-28T10:57:47;2.50;;;2.30;;
2338;SDS011;1180;51.438;6.978;2023-07-28T11:00:15;3.40;;;3.20;;
2338;SDS011;1180;51.438;6.978;2023-07-28T11:02:43;4.47;;;4.17;;
2338;SDS011;1180;51.438;6.978;2023-07-28T11:05:11;4.10;;;3.80;;
2338;SDS011;1180;51.438;6.978;2023-07-28T11:07:40;4.03;;;3.73;;
2338;SDS011;1180;51.438;6.978;2023-07-28T11:10:09;4.90;;;4.50;;
2338;SDS011;1180;51.438;6.978;2023-07-28T11:12:39;5.83;;;4.70;;
2338;SDS011;1180;51.438;6.978;2023-07-28T11:15:10;4.23;;;3.93;;
2338;SDS011;1180;51.438;6.978;2023-07-28T11:17:41;4.80;;;3.87;;
2338;SDS011;1180;51.438;6.978;2023-07-28T11:20:22;3.97;;;3.67;;
2338;SDS011;1180;51.438;6.978;2023-07-28T11:22:58;4.20;;;3.90;;
2338;SDS011;1180;51.438;6.978;2023-07-28T11:25:27;2.70;;;2.50;;
2338;SDS011;1180;51.438;6.978;2023-07-28T11:27:53;3.20;;;2.50;;
2338;SDS011;1180;51.438;6.978;2023-07-28T11:30:21;5.27;;;2.83;;
2338;SDS011;1180;51.438;6.978;2023-07-28T11:32:48;2.70;;;2.50;;
2338;SDS011;1180;51.438;6.978;2023-07-28T11:35:15;2.73;;;2.00;;
2338;SDS011;1180;51.438;6.978;2023-07-28T11:37:43;2.13;;;2.03;;
2338;SDS011;1180;51.438;6.978;2023-07-28T11:40:11;3.37;;;3.17;;
2338;SDS011;1180;51.438;6.978;2023-07-28T11:42:38;4.47;;;3.23;;
2338;SDS011;1180;51.438;6.978;2023-07-28T11:45:08;3.40;;;3.10;;
2338;SDS011;1180;51.438;6.978;2023-07-28T11:47:37;3.47;;;3.27;;
2338;SDS011;1180;51.438;6.978;2023-07-28T11:50:02;3.73;;;3.43;;
2338;SDS011;1180;51.438;6.978;2023-07-28T11:52:32;4.70;;;3.50;;
2338;SDS011;1180;51.438;6.978;2023-07-28T11:55:00;4.33;;;3.20;;
2338;SDS011;1180;51.438;6.978;2023-07-28T11:57:27;4.23;;;3.90;;
2338;SDS011;1180;51.438;6.978;2023-07-28T11:59:56;3.83;;;3.57;;
2338;SDS011;1180;51.438;6.978;2023-07-28T12:02:28;3.30;;;3.10;;
2338;SDS011;1180;51.438;6.978;2023-07-28T12:04:55;2.80;;;2.60;;
2338;SDS011;1180;51.438;6.978;2023-07-28T12:07:29;2.17;;;2.07;;
2338;SDS011;1180;51.438;6.978;2023-07-28T12:09:57;2.90;;;2.70;;
2338;SDS011;1180;51.438;6.978;2023-07-28T12:12:27;1.90;;;1.80;;
2338;SDS011;1180;51.438;6.978;2023-07-28T12:14:57;2.43;;;2.23;;
2338;SDS011;1180;51.438;6.978;2023-07-28T12:17:30;1.80;;;1.50;;
2338;SDS011;1180;51.438;6.978;2023-07-28T12:19:59;2.37;;;2.17;;
2338;SDS011;1180;51.438;6.978;2023-07-28T12:22:40;2.23;;;1.90;;
2338;SDS011;1180;51.438;6.978;2023-07-28T12:25:07;2.07;;;1.97;;
2338;SDS011;1180;51.438;6.978;2023-07-28T12:27:34;2.07;;;1.97;;
2338;SDS011;1180;51.438;6.978;2023-07-28T12:30:00;1.80;;;1.70;;
2338;SDS011;1180;51.438;6.978;2023-07-28T12:32:26;1.60;;;1.30;;
2338;SDS011;1180;51.438;6.978;2023-07-28T12:34:52;1.23;;;1.13;;
2338;SDS011;1180;51.438;6.978;2023-07-28T12:37:18;1.50;;;1.20;;
2338;SDS011;1180;51.438;6.978;2023-07-28T12:39:44;1.20;;;1.10;;
2338;SDS011;1180;51.438;6.978;2023-07-28T12:42:11;1.97;;;1.30;;
2338;SDS011;1180;51.438;6.978;2023-07-28T12:44:37;1.50;;;1.10;;
2338;SDS011;1180;51.438;6.978;2023-07-28T12:47:03;1.73;;;1.63;;
2338;SDS011;1180;51.438;6.978;2023-07-28T12:49:30;3.40;;;1.13;;
2338;SDS011;1180;51.438;6.978;2023-07-28T12:51:57;7.13;;;1.33;;
2338;SDS011;1180;51.438;6.978;2023-07-28T12:54:24;1.40;;;1.30;;
2338;SDS011;1180;51.438;6.978;2023-07-28T12:56:51;1.53;;;1.43;;
2338;SDS011;1180;51.438;6.978;2023-07-28T12:59:17;1.40;;;1.30;;
2338;SDS011;1180;51.438;6.978;2023-07-28T13:01:43;1.57;;;1.47;;
2338;SDS011;1180;51.438;6.978;2023-07-28T13:04:08;1.70;;;1.53;;
2338;SDS011;1180;51.438;6.978;2023-07-28T13:06:34;1.83;;;1.30;;
2338;SDS011;1180;51.438;6.978;2023-07-28T13:09:01;1.77;;;1.60;;
2338;SDS011;1180;51.438;6.978;2023-07-28T13:11:27;1.57;;;1.27;;
2338;SDS011;1180;51.438;6.978;2023-07-28T13:13:52;2.03;;;1.30;;
2338;SDS011;1180;51.438;6.978;2023-07-28T13:16:18;3.13;;;1.63;;
2338;SDS011;1180;51.438;6.978;2023-07-28T13:18:44;1.43;;;1.33;;
2338;SDS011;1180;51.438;6.978;2023-07-28T13:21:10;3.00;;;2.00;;
2338;SDS011;1180;51.438;6.978;2023-07-28T13:23:37;2.10;;;2.00;;
2338;SDS011;1180;51.438;6.978;2023-07-28T13:26:03;1.73;;;1.63;;
2338;SDS011;1180;51.438;6.978;2023-07-28T13:28:29;2.10;;;1.67;;
2338;SDS011;1180;51.438;6.978;2023-07-28T13:30:55;1.43;;;1.33;;
2338;SDS011;1180;51.438;6.978;2023-07-28T13:33:21;1.30;;;1.20;;
2338;SDS011;1180;51.438;6.978;2023-07-28T13:35:47;1.53;;;1.10;;
2338;SDS011;1180;51.438;6.978;2023-07-28T13:38:12;1.87;;;1.27;;
2338;SDS011;1180;51.438;6.978;2023-07-28T13:40:38;1.20;;;1.10;;
2338;SDS011;1180;51.438;6.978;2023-07-28T13:43:05;1.80;;;1.10;;
2338;SDS011;1180;51.438;6.978;2023-07-28T13:45:31;1.10;;;1.00;;
2338;SDS011;1180;51.438;6.978;2023-07-28T13:47:56;1.27;;;0.80;;
2338;SDS011;1180;51.438;6.978;2023-07-28T13:50:22;0.90;;;0.80;;
2338;SDS011;1180;51.438;6.978;2023-07-28T13:52:48;1.40;;;1.03;;
2338;SDS011;1180;51.438;6.978;2023-07-28T13:55:14;1.00;;;0.90;;
2338;SDS011;1180;51.438;6.978;2023-07-28T13:57:40;1.00;;;0.87;;
2338;SDS011;1180;51.438;6.978;2023-07-28T14:00:06;1.43;;;0.80;;
2338;SDS011;1180;51.438;6.978;2023-07-28T14:02:36;1.10;;;1.00;;
2338;SDS011;1180;51.438;6.978;2023-07-28T14:05:02;1.70;;;1.53;;
2338;SDS011;1180;51.438;6.978;2023-07-28T14:07:28;0.80;;;0.80;;
2338;SDS011;1180;51.438;6.978;2023-07-28T14:09:54;0.80;;;0.60;;
2338;SDS011;1180;51.438;6.978;2023-07-28T14:12:19;1.00;;;0.80;;
2338;SDS011;1180;51.438;6.978;2023-07-28T14:14:45;1.30;;;1.00;;
2338;SDS011;1180;51.438;6.978;2023-07-28T14:17:10;1.23;;;0.83;;
2338;SDS011;1180;51.438;6.978;2023-07-28T14:19:37;1.33;;;0.83;;
2338;SDS011;1180;51.438;6.978;2023-07-28T14:22:04;1.10;;;0.90;;
2338;SDS011;1180;51.438;6.978;2023-07-28T14:24:30;1.10;;;1.00;;
2338;SDS011;1180;51.438;6.978;2023-07-28T14:26:55;1.10;;;1.00;;
2338;SDS011;1180;51.438;6.978;2023-07-28T14:29:21;0.93;;;0.80;;
2338;SDS011;1180;51.438;6.978;2023-07-28T14:31:47;1.73;;;1.63;;
2338;SDS011;1180;51.438;6.978;2023-07-28T14:34:13;1.20;;;1.10;;
2338;SDS011;1180;51.438;6.978;2023-07-28T14:36:39;1.10;;;0.90;;
2338;SDS011;1180;51.438;6.978;2023-07-28T14:39:05;0.90;;;0.80;;
2338;SDS011;1180;51.438;6.978;2023-07-28T14:41:31;1.53;;;1.33;;
2338;SDS011;1180;51.438;6.978;2023-07-28T14:43:57;1.27;;;1.17;;
2338;SDS011;1180;51.438;6.978;2023-07-28T14:46:23;1.83;;;0.97;;
2338;SDS011;1180;51.438;6.978;2023-07-28T14:48:53;1.20;;;0.80;;
2338;SDS011;1180;51.438;6.978;2023-07-28T14:51:19;2.37;;;1.20;;
2338;SDS011;1180;51.438;6.978;2023-07-28T14:53:45;0.97;;;0.87;;
2338;SDS011;1180;51.438;6.978;2023-07-28T14:56:11;4.73;;;0.80;;
2338;SDS011;1180;51.438;6.978;2023-07-28T14:58:37;1.10;;;1.00;;
2338;SDS011;1180;51.438;6.978;2023-07-28T15:01:04;2.10;;;1.10;;
2338;SDS011;1180;51.438;6.978;2023-07-28T15:03:31;1.70;;;1.27;;
2338;SDS011;1180;51.438;6.978;2023-07-28T15:05:57;2.37;;;1.93;;
2338;SDS011;1180;51.438;6.978;2023-07-28T15:08:23;2.93;;;1.70;;
2338;SDS011;1180;51.438;6.978;2023-07-28T15:10:49;1.37;;;1.10;;
2338;SDS011;1180;51.438;6.978;2023-07-28T15:13:14;1.00;;;0.90;;
2338;SDS011;1180;51.438;6.978;2023-07-28T15:15:40;1.03;;;0.80;;
2338;SDS011;1180;51.438;6.978;2023-07-28T15:18:05;1.00;;;0.90;;